Time;durP1;ratioP1;P1;durP2;ratioP2;P2;SDS_P1;SDS_P2;PMS_P1;PMS_P2;Temp;Humidity;BMP_temperature;BMP_pressure;BME280_temperature;BME280_humidity;BME280_pressure;Samples;Min_cycle;Max_cycle;Signal;HPM_P1;HPM_P2
2021/12/12 00:01:12;;;;;;;35.17;22.27;;;4.00;99.90;;;;;;5134475;27;20214;-64
2021/12/12 00:03:46;;;;;;;29.58;21.90;;;4.10;99.90;;;;;;5134485;27;20266;-64
2021/12/12 00:06:17;;;;;;;38.78;22.30;;;4.10;99.90;;;;;;5133596;27;20556;-64
2021/12/12 00:08:46;;;;;;;34.70;25.10;;;4.10;99.90;;;;;;5121386;27;20678;-64
2021/12/12 00:11:17;;;;;;;34.53;23.77;;;4.00;99.90;;;;;;5129438;27;20739;-64
2021/12/12 00:13:47;;;;;;;36.83;25.42;;;4.00;99.90;;;;;;5132876;27;20659;-64
2021/12/12 00:16:16;;;;;;;31.08;22.25;;;4.00;99.90;;;;;;5132603;27;20236;-64
2021/12/12 00:18:44;;;;;;;32.95;23.13;;;4.00;99.90;;;;;;5129445;27;20217;-64
2021/12/12 00:21:13;;;;;;;31.65;23.88;;;3.90;99.90;;;;;;5134178;27;20222;-64
2021/12/12 00:23:40;;;;;;;30.63;22.50;;;3.90;99.90;;;;;;5123709;27;20562;-64
2021/12/12 00:26:08;;;;;;;31.00;22.65;;;3.90;99.90;;;;;;5134189;27;20571;-64
2021/12/12 00:28:36;;;;;;;30.80;22.48;;;3.90;99.90;;;;;;5133876;27;20230;-64
2021/12/12 00:31:09;;;;;;;35.97;25.17;;;3.90;99.90;;;;;;5130552;27;20530;-64
2021/12/12 00:33:40;;;;;;;34.15;24.88;;;3.90;99.90;;;;;;5125341;27;20241;-64
2021/12/12 00:36:07;;;;;;;41.35;27.02;;;3.90;99.90;;;;;;5129928;27;20676;-64
2021/12/12 00:38:36;;;;;;;36.45;25.80;;;4.00;99.90;;;;;;5127708;27;20577;-64
2021/12/12 00:41:06;;;;;;;29.30;22.10;;;4.00;99.90;;;;;;5133091;27;20241;-64
2021/12/12 00:43:37;;;;;;;31.83;21.40;;;4.00;99.90;;;;;;5130416;27;20226;-64
2021/12/12 00:46:08;;;;;;;26.38;19.80;;;4.10;99.90;;;;;;5133996;27;20218;-64
2021/12/12 00:48:38;;;;;;;30.13;20.77;;;4.10;99.90;;;;;;5129315;27;20237;-64
2021/12/12 00:51:08;;;;;;;31.10;20.27;;;3.90;99.90;;;;;;5133613;27;20244;-64
2021/12/12 00:53:36;;;;;;;31.35;22.33;;;3.90;99.90;;;;;;5133059;27;20226;-64
2021/12/12 00:56:03;;;;;;;28.73;21.17;;;3.90;99.90;;;;;;5133740;27;20214;-64
2021/12/12 00:58:30;;;;;;;35.97;24.13;;;3.90;99.90;;;;;;5133236;27;20240;-64
2021/12/12 01:01:02;;;;;;;31.40;21.85;;;3.90;99.90;;;;;;5133308;27;20239;-64
2021/12/12 01:03:35;;;;;;;34.00;23.33;;;4.00;99.90;;;;;;5129125;27;20221;-64
2021/12/12 01:06:05;;;;;;;30.77;20.70;;;4.00;99.90;;;;;;5132798;27;20228;-65
2021/12/12 01:08:33;;;;;;;28.88;21.05;;;3.90;99.90;;;;;;5133045;27;20240;-64
2021/12/12 01:11:04;;;;;;;29.85;21.10;;;3.90;99.90;;;;;;5133493;27;20240;-64
2021/12/12 01:13:32;;;;;;;31.08;21.38;;;3.90;99.90;;;;;;5119818;27;20593;-64
2021/12/12 01:16:04;;;;;;;30.23;21.52;;;4.00;99.90;;;;;;5133640;27;20548;-64
2021/12/12 01:18:40;;;;;;;24.25;19.90;;;3.90;99.90;;;;;;5133352;27;20226;-64
2021/12/12 01:21:14;;;;;;;24.40;19.02;;;4.00;99.90;;;;;;5132885;27;20751;-64
2021/12/12 01:23:45;;;;;;;27.50;21.17;;;4.00;99.90;;;;;;5132675;27;20226;-64
2021/12/12 01:26:12;;;;;;;28.95;21.55;;;4.00;99.90;;;;;;5131236;27;20566;-64
2021/12/12 01:28:42;;;;;;;24.65;19.27;;;4.00;99.90;;;;;;5133033;27;20221;-65
2021/12/12 01:31:14;;;;;;;30.48;22.30;;;4.00;99.90;;;;;;5132976;27;20357;-64
2021/12/12 01:33:43;;;;;;;26.02;20.15;;;4.00;99.90;;;;;;5120589;27;20222;-64
2021/12/12 01:36:23;;;;;;;27.42;20.08;;;4.00;99.90;;;;;;5128856;27;20249;-63
2021/12/12 01:38:52;;;;;;;27.23;20.35;;;3.90;99.90;;;;;;5126812;27;20213;-64
2021/12/12 01:41:23;;;;;;;26.08;20.40;;;4.00;99.90;;;;;;5130575;27;20218;-64
2021/12/12 01:43:54;;;;;;;30.85;22.25;;;4.00;99.90;;;;;;5119572;27;20233;-64
2021/12/12 01:46:26;;;;;;;24.58;20.17;;;4.00;99.90;;;;;;5133552;27;20213;-64
2021/12/12 01:48:57;;;;;;;28.92;19.95;;;4.00;99.90;;;;;;5136927;27;20220;-64
2021/12/12 01:51:27;;;;;;;29.23;20.60;;;4.00;99.90;;;;;;5136911;27;20244;-65
2021/12/12 01:53:59;;;;;;;25.35;20.38;;;4.10;99.90;;;;;;5136847;27;20240;-65
2021/12/12 01:56:29;;;;;;;24.00;19.63;;;4.10;99.90;;;;;;5133184;27;20240;-64
2021/12/12 01:59:01;;;;;;;28.92;22.33;;;4.20;99.90;;;;;;5137033;27;20974;-65
2021/12/12 02:01:31;;;;;;;24.92;19.08;;;4.20;99.90;;;;;;5137339;27;20246;-65
2021/12/12 02:04:03;;;;;;;25.92;19.35;;;4.20;99.90;;;;;;5137024;27;20903;-65
2021/12/12 02:06:32;;;;;;;30.48;23.52;;;4.20;99.90;;;;;;5137414;27;20221;-65
2021/12/12 02:09:00;;;;;;;30.02;20.77;;;4.20;99.90;;;;;;5136241;27;20218;-65
2021/12/12 02:11:30;;;;;;;25.23;20.77;;;4.20;99.90;;;;;;5137143;27;20233;-65
2021/12/12 02:14:08;;;;;;;23.73;19.40;;;4.20;99.90;;;;;;5136705;27;20221;-65
2021/12/12 02:16:37;;;;;;;26.20;20.70;;;4.20;99.90;;;;;;5136522;27;20221;-65
2021/12/12 02:19:05;;;;;;;27.80;21.58;;;4.10;99.90;;;;;;5136983;27;20222;-65
2021/12/12 02:21:43;;;;;;;30.95;21.80;;;4.10;99.90;;;;;;5136875;27;20297;-65
2021/12/12 02:35:01;;;;;;;28.35;21.20;;;4.10;99.90;;;;;;5136666;27;20222;-65
2021/12/12 02:35:37;;;;;;;26.70;20.15;;;4.10;99.90;;;;;;5134054;27;20286;-65
2021/12/12 02:38:06;;;;;;;22.50;17.73;;;4.10;99.90;;;;;;5124497;27;20228;-65
2021/12/12 02:40:38;;;;;;;24.25;18.90;;;4.10;99.90;;;;;;5135697;27;20970;-65
2021/12/12 02:43:07;;;;;;;21.48;17.58;;;4.10;99.90;;;;;;5127783;27;20219;-65
2021/12/12 02:45:35;;;;;;;23.60;18.38;;;4.10;99.90;;;;;;5132601;27;20221;-62
2021/12/12 02:48:06;;;;;;;22.80;18.88;;;4.10;99.90;;;;;;5136484;27;20232;-65
2021/12/12 02:50:38;;;;;;;25.38;18.95;;;4.10;99.90;;;;;;5135320;27;20320;-65
2021/12/12 02:53:13;;;;;;;22.42;19.27;;;4.10;99.90;;;;;;5136453;27;20222;-65
2021/12/12 02:55:44;;;;;;;23.60;19.52;;;4.10;99.90;;;;;;5135663;27;20614;-65
2021/12/12 02:58:16;;;;;;;23.38;19.00;;;4.10;99.90;;;;;;5135965;27;20296;-63
2021/12/12 03:00:48;;;;;;;28.38;20.65;;;4.00;99.90;;;;;;5135801;27;20944;-63
2021/12/12 03:03:17;;;;;;;22.90;19.73;;;4.00;99.90;;;;;;5136134;27;20228;-65
2021/12/12 03:05:47;;;;;;;25.17;19.75;;;4.00;99.90;;;;;;5136079;27;20214;-65
2021/12/12 03:08:15;;;;;;;25.73;19.42;;;4.00;99.90;;;;;;5135867;27;20214;-65
2021/12/12 03:10:47;;;;;;;22.30;17.05;;;4.00;99.90;;;;;;5130656;27;20729;-65
2021/12/12 03:13:14;;;;;;;23.58;19.10;;;4.10;99.90;;;;;;5133675;27;20240;-65
2021/12/12 03:15:44;;;;;;;26.27;19.48;;;4.10;99.90;;;;;;5135699;27;20214;-65
2021/12/12 03:18:14;;;;;;;24.95;20.13;;;4.10;99.90;;;;;;5135661;27;20225;-65
2021/12/12 03:20:45;;;;;;;21.45;18.10;;;4.10;99.90;;;;;;5135534;27;20225;-65
2021/12/12 03:23:17;;;;;;;25.98;19.25;;;4.10;99.90;;;;;;5135951;27;20684;-65
2021/12/12 03:25:49;;;;;;;22.45;17.45;;;4.10;99.90;;;;;;5135285;27;20230;-65
2021/12/12 03:28:20;;;;;;;24.63;18.58;;;4.10;99.90;;;;;;5135567;27;20222;-65
2021/12/12 03:30:52;;;;;;;26.30;19.92;;;4.10;99.90;;;;;;5135214;27;20214;-65
2021/12/12 03:33:19;;;;;;;21.90;18.00;;;4.10;99.90;;;;;;5125271;27;20236;-65
2021/12/12 03:35:47;;;;;;;23.80;17.98;;;4.20;99.90;;;;;;5136054;27;20252;-65
2021/12/12 03:38:15;;;;;;;25.83;18.02;;;4.20;99.90;;;;;;5124316;27;20218;-65
2021/12/12 03:40:44;;;;;;;23.50;18.25;;;4.20;99.90;;;;;;5134756;27;20314;-65
2021/12/12 03:43:14;;;;;;;24.45;18.83;;;4.20;99.90;;;;;;5125664;27;20268;-65
2021/12/12 03:45:43;;;;;;;21.92;17.65;;;4.20;99.90;;;;;;5132287;27;20673;-65
2021/12/12 03:48:15;;;;;;;21.85;17.50;;;4.20;99.90;;;;;;5135296;27;20234;-65
2021/12/12 03:50:45;;;;;;;25.35;19.02;;;4.30;99.90;;;;;;5134607;27;20221;-65
2021/12/12 03:53:12;;;;;;;20.98;18.02;;;4.30;99.90;;;;;;5135055;27;20218;-65
2021/12/12 03:55:41;;;;;;;24.48;17.95;;;4.30;99.90;;;;;;5133893;27;20222;-65
2021/12/12 03:58:10;;;;;;;28.77;20.15;;;4.30;99.90;;;;;;5134931;27;20213;-65
2021/12/12 04:00:44;;;;;;;24.05;18.90;;;4.30;99.90;;;;;;5134537;27;20237;-65
2021/12/12 04:03:12;;;;;;;25.80;18.05;;;4.30;99.90;;;;;;5135027;27;20222;-65
2021/12/12 04:05:39;;;;;;;20.33;16.65;;;4.30;99.90;;;;;;5134469;27;20221;-65
2021/12/12 04:08:07;;;;;;;21.38;17.25;;;4.30;99.90;;;;;;5134808;27;20226;-65
2021/12/12 04:10:34;;;;;;;21.88;17.38;;;4.30;99.90;;;;;;5133628;27;20226;-64
2021/12/12 04:13:01;;;;;;;23.45;18.85;;;4.30;99.90;;;;;;5134856;27;20249;-64
2021/12/12 04:15:28;;;;;;;23.52;18.70;;;4.30;99.90;;;;;;5134538;27;20237;-64
2021/12/12 04:17:56;;;;;;;23.17;17.38;;;4.20;99.90;;;;;;5134608;27;20222;-64
2021/12/12 04:20:27;;;;;;;23.02;17.90;;;4.20;99.90;;;;;;5134712;27;20245;-63
2021/12/12 04:22:54;;;;;;;24.25;19.60;;;4.20;99.90;;;;;;5134185;27;20670;-63
2021/12/12 04:25:22;;;;;;;22.67;17.65;;;4.20;99.90;;;;;;5134829;27;20562;-64
2021/12/12 04:27:49;;;;;;;29.02;20.27;;;4.30;99.90;;;;;;5134089;27;20232;-61
2021/12/12 04:30:17;;;;;;;25.20;17.70;;;4.30;99.90;;;;;;5134380;27;20251;-64
2021/12/12 04:32:45;;;;;;;24.83;17.75;;;4.30;99.90;;;;;;5122723;27;20246;-61
2021/12/12 04:35:17;;;;;;;23.77;18.98;;;4.30;99.90;;;;;;5134339;27;20222;-63
2021/12/12 04:37:45;;;;;;;25.52;18.92;;;4.30;99.90;;;;;;5121564;27;20239;-63
2021/12/12 04:40:16;;;;;;;22.55;19.10;;;4.40;99.90;;;;;;5132728;27;20236;-62
2021/12/12 04:42:44;;;;;;;26.52;20.63;;;4.40;99.90;;;;;;5127237;27;20279;-62
2021/12/12 04:45:20;;;;;;;29.95;21.52;;;4.40;99.90;;;;;;5127124;27;20222;-62
2021/12/12 04:50:50;;;;;;;25.00;19.58;;;4.50;99.90;;;;;;5133605;27;20295;-62
2021/12/12 04:53:23;;;;;;;26.98;20.70;;;4.50;99.90;;;;;;5133919;27;20231;-61
2021/12/12 04:55:56;;;;;;;26.60;19.45;;;4.60;99.90;;;;;;5125645;27;20304;-62
2021/12/12 04:58:33;;;;;;;35.97;24.40;;;4.60;99.90;;;;;;5133792;27;20224;-62
2021/12/12 05:01:06;;;;;;;23.17;18.40;;;4.70;99.90;;;;;;5133818;27;20222;-62
2021/12/12 05:03:42;;;;;;;25.13;19.05;;;4.70;99.90;;;;;;5133740;27;20710;-62
2021/12/12 05:06:14;;;;;;;26.08;21.42;;;4.70;99.90;;;;;;5133662;27;20218;-61
2021/12/12 05:08:53;;;;;;;24.02;19.65;;;4.80;99.90;;;;;;5133601;27;20236;-62
2021/12/12 05:11:25;;;;;;;33.28;23.60;;;4.80;99.90;;;;;;5133921;27;20218;-62
2021/12/12 05:13:56;;;;;;;25.20;20.15;;;4.80;99.90;;;;;;5133528;27;21311;-62
2021/12/12 05:16:28;;;;;;;28.73;20.23;;;4.90;99.90;;;;;;5133813;27;20572;-62
2021/12/12 05:19:05;;;;;;;27.88;22.55;;;4.80;99.90;;;;;;5133615;27;20269;-61
2021/12/12 05:21:37;;;;;;;27.25;21.00;;;4.90;99.90;;;;;;5124808;27;20233;-62
2021/12/12 05:24:08;;;;;;;34.10;22.00;;;5.00;99.90;;;;;;5133525;27;20218;-62
2021/12/12 05:26:39;;;;;;;30.75;22.90;;;5.00;99.90;;;;;;5133238;27;20250;-62
2021/12/12 05:29:09;;;;;;;26.00;20.42;;;5.00;99.90;;;;;;5133447;27;20232;-62
2021/12/12 05:31:36;;;;;;;30.42;22.90;;;5.00;99.90;;;;;;5133118;27;20222;-62
2021/12/12 05:34:05;;;;;;;32.58;23.65;;;5.10;99.90;;;;;;5133388;27;20218;-62
2021/12/12 05:36:36;;;;;;;31.52;22.95;;;5.10;99.90;;;;;;5127592;27;20219;-62
2021/12/12 05:39:05;;;;;;;32.35;23.75;;;5.10;99.90;;;;;;5128926;27;20701;-62
2021/12/12 05:41:32;;;;;;;26.58;21.45;;;5.10;99.90;;;;;;5132947;27;20226;-62
2021/12/12 05:44:00;;;;;;;27.33;21.35;;;5.20;99.90;;;;;;5120056;27;20214;-62
2021/12/12 05:46:27;;;;;;;32.45;23.52;;;5.10;99.90;;;;;;5133317;27;20537;-62
2021/12/12 05:48:55;;;;;;;34.67;23.02;;;5.20;99.90;;;;;;5132738;27;20218;-62
2021/12/12 05:51:22;;;;;;;35.72;23.25;;;5.10;99.90;;;;;;5133135;27;20237;-62
2021/12/12 05:53:52;;;;;;;34.28;21.73;;;5.10;99.90;;;;;;5132795;27;20773;-62
2021/12/12 05:56:22;;;;;;;38.88;25.50;;;5.00;99.90;;;;;;5128640;27;20334;-62
2021/12/12 05:58:51;;;;;;;29.40;21.30;;;5.00;99.90;;;;;;5132859;27;20653;-62
2021/12/12 06:01:18;;;;;;;27.50;20.70;;;5.00;99.90;;;;;;5133295;27;20232;-62
2021/12/12 06:03:47;;;;;;;31.38;21.35;;;5.00;99.90;;;;;;5119101;27;20232;-62
2021/12/12 06:06:18;;;;;;;37.03;21.33;;;5.00;99.90;;;;;;5132982;27;20218;-61
2021/12/12 06:08:47;;;;;;;26.38;19.45;;;5.00;99.90;;;;;;5132724;27;20259;-62
2021/12/12 06:11:17;;;;;;;26.42;19.52;;;5.10;99.90;;;;;;5128767;27;20818;-63
2021/12/12 06:13:46;;;;;;;25.25;18.60;;;5.00;99.90;;;;;;5132770;27;20228;-63
2021/12/12 06:16:18;;;;;;;27.73;19.13;;;5.00;99.90;;;;;;5132906;27;20226;-63
2021/12/12 06:18:47;;;;;;;23.17;19.38;;;5.00;99.90;;;;;;5132669;27;20221;-63
2021/12/12 06:21:14;;;;;;;25.13;18.60;;;5.00;99.90;;;;;;5132900;27;20821;-63
2021/12/12 06:23:42;;;;;;;24.77;17.42;;;5.10;99.90;;;;;;5132809;27;20236;-64
2021/12/12 06:26:09;;;;;;;25.77;18.85;;;5.00;99.90;;;;;;5132709;27;20228;-63
2021/12/12 06:28:39;;;;;;;25.92;20.17;;;5.00;99.90;;;;;;5132649;27;20224;-63
2021/12/12 06:31:07;;;;;;;23.88;17.65;;;5.00;99.90;;;;;;5130647;27;20218;-63
2021/12/12 06:33:37;;;;;;;30.33;21.40;;;5.00;99.90;;;;;;5127806;27;20570;-63
2021/12/12 06:36:05;;;;;;;24.70;18.58;;;5.00;99.90;;;;;;5131763;27;20253;-63
2021/12/12 06:38:33;;;;;;;27.27;19.05;;;4.90;99.90;;;;;;5128199;27;20745;-63
2021/12/12 06:41:01;;;;;;;28.58;17.70;;;4.90;99.90;;;;;;5136116;27;20226;-63
2021/12/12 06:43:28;;;;;;;25.75;19.80;;;4.90;99.90;;;;;;5136468;27;20222;-64
2021/12/12 06:45:57;;;;;;;22.83;18.83;;;4.90;99.90;;;;;;5135335;27;20313;-63
2021/12/12 06:48:25;;;;;;;22.08;17.85;;;4.90;99.90;;;;;;5136655;27;20275;-63
2021/12/12 06:50:53;;;;;;;23.73;19.90;;;4.80;99.90;;;;;;5136023;27;20225;-62
2021/12/12 06:53:23;;;;;;;23.60;17.77;;;4.80;99.90;;;;;;5136450;27;20225;-63
2021/12/12 06:55:52;;;;;;;21.60;18.70;;;4.80;99.90;;;;;;5135952;27;20692;-64
2021/12/12 06:58:21;;;;;;;26.92;19.65;;;4.80;99.90;;;;;;5136362;27;20554;-63
2021/12/12 07:00:52;;;;;;;26.77;19.63;;;4.80;99.90;;;;;;5135915;27;20575;-64
2021/12/12 07:03:22;;;;;;;23.42;18.90;;;4.80;99.90;;;;;;5136276;27;20566;-64
2021/12/12 07:05:50;;;;;;;21.58;18.73;;;4.80;99.90;;;;;;5135914;27;20415;-63
2021/12/12 07:08:19;;;;;;;23.00;18.23;;;4.80;99.90;;;;;;5135928;27;20232;-64
2021/12/12 07:10:46;;;;;;;23.15;18.67;;;4.70;99.90;;;;;;5135736;27;20221;-64
2021/12/12 07:13:14;;;;;;;24.02;18.40;;;4.80;99.90;;;;;;5135554;27;20224;-64
2021/12/12 07:15:46;;;;;;;21.75;17.70;;;4.70;99.90;;;;;;5136353;27;20218;-64
2021/12/12 07:18:16;;;;;;;26.45;18.95;;;4.70;99.90;;;;;;5135603;27;20510;-64
2021/12/12 07:20:48;;;;;;;20.58;18.00;;;4.70;99.90;;;;;;5135929;27;20226;-64
2021/12/12 07:23:15;;;;;;;22.40;17.52;;;4.60;99.90;;;;;;5134468;27;20737;-62
2021/12/12 07:25:44;;;;;;;21.08;18.88;;;4.60;99.90;;;;;;5134254;27;20222;-62
2021/12/12 07:28:12;;;;;;;24.75;18.13;;;4.60;99.90;;;;;;5133668;27;20225;-62
2021/12/12 07:30:40;;;;;;;26.02;18.17;;;4.60;99.90;;;;;;5134185;27;20226;-62
2021/12/12 07:33:07;;;;;;;23.50;19.65;;;4.60;99.90;;;;;;5126445;27;20309;-63
2021/12/12 07:35:36;;;;;;;26.42;18.83;;;4.60;99.90;;;;;;5133856;27;20442;-62
2021/12/12 07:38:07;;;;;;;25.95;19.88;;;4.50;99.90;;;;;;5128430;27;20222;-62
2021/12/12 07:40:34;;;;;;;21.42;18.23;;;4.50;99.90;;;;;;5135762;27;20222;-63
2021/12/12 07:43:01;;;;;;;26.20;19.10;;;4.50;99.90;;;;;;5135164;27;20222;-63
2021/12/12 07:45:28;;;;;;;23.40;18.92;;;4.50;99.90;;;;;;5133774;27;20308;-63
2021/12/12 07:47:56;;;;;;;28.83;21.60;;;4.50;99.90;;;;;;5135175;27;20299;-62
2021/12/12 07:50:25;;;;;;;29.23;19.50;;;4.50;99.90;;;;;;5135133;27;20226;-63
2021/12/12 07:52:52;;;;;;;25.80;19.15;;;4.50;99.90;;;;;;5135601;27;20307;-63
2021/12/12 07:55:21;;;;;;;25.17;19.48;;;4.40;99.90;;;;;;5134800;27;20937;-63
2021/12/12 07:57:48;;;;;;;23.95;19.80;;;4.50;99.90;;;;;;5135510;27;20240;-63
2021/12/12 08:00:20;;;;;;;24.65;19.63;;;4.40;99.90;;;;;;5134894;27;20236;-63
2021/12/12 08:02:48;;;;;;;23.65;20.00;;;4.40;99.90;;;;;;5135352;27;20559;-62
2021/12/12 08:05:18;;;;;;;27.52;20.48;;;4.40;99.90;;;;;;5134206;27;20270;-62
2021/12/12 08:07:46;;;;;;;26.35;19.45;;;4.30;99.90;;;;;;5135138;27;20309;-62
2021/12/12 08:10:22;;;;;;;25.50;18.63;;;4.30;99.90;;;;;;5134422;27;20236;-63
2021/12/12 08:12:51;;;;;;;26.38;19.20;;;4.30;99.90;;;;;;5135018;27;20221;-63
2021/12/12 08:15:19;;;;;;;27.65;19.63;;;4.20;99.90;;;;;;5120744;27;20606;-62
2021/12/12 08:17:46;;;;;;;27.02;20.15;;;4.20;99.90;;;;;;5135273;27;20221;-63
2021/12/12 08:20:15;;;;;;;23.25;18.85;;;4.30;99.90;;;;;;5133687;27;20676;-63
2021/12/12 08:22:44;;;;;;;24.67;19.75;;;4.20;99.90;;;;;;5134821;27;20255;-63
2021/12/12 08:25:13;;;;;;;25.30;18.88;;;4.30;99.90;;;;;;5134536;27;20691;-63
2021/12/12 08:27:41;;;;;;;27.55;20.70;;;4.30;99.90;;;;;;5134845;27;20218;-63
2021/12/12 08:30:13;;;;;;;27.40;21.27;;;4.30;99.90;;;;;;5134152;27;20221;-63
2021/12/12 08:32:40;;;;;;;26.35;20.63;;;4.20;99.90;;;;;;5134806;27;20222;-63
2021/12/12 08:35:09;;;;;;;32.47;22.95;;;4.30;99.90;;;;;;5134185;27;20216;-63
2021/12/12 08:37:36;;;;;;;25.98;20.73;;;4.30;99.90;;;;;;5125214;27;20236;-62
2021/12/12 08:40:05;;;;;;;24.35;19.88;;;4.30;99.90;;;;;;5117873;27;20210;-62
2021/12/12 08:42:32;;;;;;;28.55;21.38;;;4.30;99.90;;;;;;5134400;27;20274;-62
2021/12/12 08:45:00;;;;;;;33.75;24.20;;;4.30;99.90;;;;;;5134094;27;20228;-62
2021/12/12 08:47:29;;;;;;;26.35;20.05;;;4.30;99.90;;;;;;5134395;27;20232;-62
2021/12/12 08:49:56;;;;;;;24.92;19.38;;;4.40;99.90;;;;;;5115845;27;20233;-62
2021/12/12 08:52:31;;;;;;;27.98;19.75;;;4.40;99.90;;;;;;5113244;27;21231;-63
2021/12/12 08:55:00;;;;;;;29.48;22.30;;;4.40;99.90;;;;;;5114319;27;20629;-62
2021/12/12 08:57:37;;;;;;;26.48;20.73;;;4.40;99.90;;;;;;5134309;27;20271;-63
2021/12/12 09:00:09;;;;;;;23.50;20.70;;;4.40;99.90;;;;;;5133599;27;20221;-63
2021/12/12 09:02:38;;;;;;;24.58;18.85;;;4.50;99.90;;;;;;5134316;27;20228;-63
2021/12/12 09:05:13;;;;;;;26.50;21.45;;;4.50;99.90;;;;;;5133965;27;20232;-62
2021/12/12 09:07:44;;;;;;;27.73;21.85;;;4.50;99.90;;;;;;5134351;27;20218;-63
2021/12/12 09:10:22;;;;;;;28.38;20.17;;;4.50;99.90;;;;;;5133364;27;20309;-63
2021/12/12 09:12:55;;;;;;;22.90;18.55;;;4.50;99.90;;;;;;5134116;27;20278;-63
2021/12/12 09:15:26;;;;;;;24.80;19.30;;;4.50;99.90;;;;;;5133749;27;20581;-63
2021/12/12 09:17:58;;;;;;;26.33;20.77;;;4.50;99.90;;;;;;5133942;27;20226;-63
2021/12/12 09:20:34;;;;;;;30.63;21.10;;;4.60;99.90;;;;;;5133458;27;20226;-63
2021/12/12 09:23:07;;;;;;;25.05;20.20;;;4.60;99.90;;;;;;5133915;27;20232;-63
2021/12/12 09:25:41;;;;;;;25.85;20.50;;;4.70;99.90;;;;;;5133751;27;20854;-62
2021/12/12 09:28:11;;;;;;;25.98;19.60;;;4.80;99.90;;;;;;5133928;27;20674;-63
2021/12/12 09:30:39;;;;;;;27.45;21.08;;;4.80;99.90;;;;;;5133365;27;20224;-63
2021/12/12 09:33:12;;;;;;;24.52;19.67;;;4.90;99.90;;;;;;5133757;27;20218;-63
2021/12/12 09:35:47;;;;;;;24.63;19.95;;;4.90;99.90;;;;;;5133747;27;20746;-63
2021/12/12 09:38:20;;;;;;;26.38;19.50;;;5.00;99.90;;;;;;5133824;27;20562;-63
2021/12/12 09:41:05;;;;;;;26.30;18.55;;;5.00;99.90;;;;;;5133435;27;20670;-63
2021/12/12 09:43:50;;;;;;;28.13;21.63;;;5.10;99.90;;;;;;5133212;27;20226;-63
2021/12/12 09:46:58;;;;;;;28.45;19.15;;;5.10;99.90;;;;;;5133614;27;20218;-63
2021/12/12 09:52:55;;;;;;;22.17;18.23;;;5.20;99.90;;;;;;5132985;27;20595;-63
2021/12/12 09:55:26;;;;;;;26.30;18.33;;;5.30;99.90;;;;;;5133080;27;20210;-63
2021/12/12 09:57:56;;;;;;;25.63;19.90;;;5.30;99.90;;;;;;5133650;27;20225;-63
2021/12/12 10:00:29;;;;;;;25.10;17.98;;;5.40;99.90;;;;;;5133169;27;20236;-63
2021/12/12 10:03:11;;;;;;;23.40;18.10;;;5.40;99.90;;;;;;5133596;27;20698;-62
2021/12/12 10:06:00;;;;;;;25.13;19.50;;;5.50;99.90;;;;;;5124749;27;21340;-64
2021/12/12 10:08:43;;;;;;;27.35;20.35;;;5.50;99.90;;;;;;5114962;27;20244;-62
2021/12/12 10:11:16;;;;;;;25.25;18.23;;;5.50;99.90;;;;;;5116883;27;20222;-63
2021/12/12 10:13:46;;;;;;;26.90;18.00;;;5.60;99.90;;;;;;5116766;27;20218;-63
2021/12/12 10:16:20;;;;;;;24.90;18.58;;;5.70;99.90;;;;;;5117073;27;20222;-62
2021/12/12 10:18:56;;;;;;;23.35;18.98;;;5.70;99.90;;;;;;5116742;27;20759;-62
2021/12/12 10:21:42;;;;;;;28.73;20.60;;;5.70;99.90;;;;;;5116283;27;20234;-61
2021/12/12 10:24:24;;;;;;;27.17;20.00;;;5.70;99.90;;;;;;5116898;27;20219;-62
2021/12/12 10:27:01;;;;;;;26.00;19.83;;;5.80;99.90;;;;;;5116485;27;20995;-62
2021/12/12 10:29:36;;;;;;;24.25;18.92;;;5.90;99.90;;;;;;5116181;27;20241;-62
2021/12/12 10:32:12;;;;;;;23.00;16.77;;;5.90;99.90;;;;;;5116676;27;20214;-64
2021/12/12 10:34:48;;;;;;;25.88;19.25;;;5.90;99.90;;;;;;5116187;27;20234;-62
2021/12/12 10:37:24;;;;;;;26.73;19.35;;;5.90;99.90;;;;;;5116560;27;20256;-63
2021/12/12 10:39:59;;;;;;;25.35;19.08;;;5.80;99.90;;;;;;5115982;27;20300;-63
2021/12/12 10:42:30;;;;;;;28.60;20.77;;;5.80;99.90;;;;;;5116129;27;20226;-62
2021/12/12 10:45:01;;;;;;;26.70;19.40;;;5.90;99.90;;;;;;5116224;27;21028;-63
2021/12/12 10:47:34;;;;;;;23.27;18.17;;;5.90;99.90;;;;;;5116267;27;20222;-63
2021/12/12 10:50:11;;;;;;;25.10;18.65;;;5.90;99.90;;;;;;5134792;27;20248;-63
2021/12/12 10:52:45;;;;;;;26.40;20.58;;;6.00;99.90;;;;;;5136201;27;20596;-64
2021/12/12 10:55:18;;;;;;;28.33;20.13;;;6.00;99.90;;;;;;5136682;27;20693;-62
2021/12/12 10:57:52;;;;;;;20.15;17.17;;;6.00;99.90;;;;;;5136405;27;20699;-63
2021/12/12 11:00:23;;;;;;;25.48;20.50;;;6.00;99.90;;;;;;5136522;27;20213;-64
2021/12/12 11:03:02;;;;;;;26.13;19.15;;;6.00;99.90;;;;;;5136215;27;20702;-64
2021/12/12 11:05:33;;;;;;;30.70;20.52;;;6.10;99.90;;;;;;5134046;27;20274;-64
2021/12/12 11:08:07;;;;;;;29.88;21.33;;;6.10;99.90;;;;;;5122169;27;20218;-64
2021/12/12 11:10:37;;;;;;;31.65;20.17;;;6.10;99.90;;;;;;5128803;27;20690;-64
2021/12/12 11:13:10;;;;;;;27.48;20.05;;;6.10;99.90;;;;;;5122446;27;21313;-64
2021/12/12 11:15:44;;;;;;;24.63;20.10;;;6.00;99.90;;;;;;5136289;27;20305;-63
2021/12/12 11:18:15;;;;;;;26.52;18.63;;;6.00;99.90;;;;;;5135954;27;20907;-63
2021/12/12 11:20:46;;;;;;;24.70;18.25;;;6.00;99.90;;;;;;5135620;27;20563;-63
2021/12/12 11:23:20;;;;;;;23.30;18.80;;;6.10;99.90;;;;;;5125311;27;20533;-63
2021/12/12 11:25:53;;;;;;;33.28;19.60;;;6.10;99.90;;;;;;5136117;27;20244;-63
2021/12/12 11:28:25;;;;;;;24.73;17.35;;;6.10;99.90;;;;;;5135905;27;20357;-65
2021/12/12 11:30:57;;;;;;;24.42;18.98;;;6.10;99.90;;;;;;5135622;27;20234;-63
2021/12/12 11:33:27;;;;;;;23.27;17.65;;;6.10;99.90;;;;;;5135573;27;20627;-62
2021/12/12 11:35:57;;;;;;;26.35;20.77;;;6.20;99.90;;;;;;5136020;27;20660;-63
2021/12/12 11:38:36;;;;;;;26.58;19.92;;;6.20;99.90;;;;;;5130193;27;20343;-63
2021/12/12 11:41:08;;;;;;;24.20;20.05;;;6.20;99.90;;;;;;5135320;27;20683;-63
2021/12/12 11:43:41;;;;;;;27.00;20.05;;;6.30;99.90;;;;;;5135380;27;20224;-64
2021/12/12 11:46:14;;;;;;;31.60;21.67;;;6.30;99.90;;;;;;5135340;27;20222;-63
2021/12/12 11:48:50;;;;;;;30.05;20.85;;;6.30;99.90;;;;;;5135089;27;20664;-64
2021/12/12 11:51:22;;;;;;;28.98;21.92;;;6.30;99.90;;;;;;5134508;27;20232;-64
2021/12/12 11:53:52;;;;;;;29.23;21.60;;;6.30;99.90;;;;;;5122228;27;20804;-64
2021/12/12 11:56:24;;;;;;;31.45;22.98;;;6.30;99.90;;;;;;5134984;27;20570;-64
2021/12/12 11:59:08;;;;;;;28.65;21.13;;;6.30;99.90;;;;;;5135533;27;20233;-64
2021/12/12 12:01:44;;;;;;;28.15;19.23;;;6.30;99.90;;;;;;5134932;27;20248;-64
2021/12/12 12:04:24;;;;;;;28.35;19.85;;;6.30;99.90;;;;;;5130058;27;20216;-64
2021/12/12 12:07:05;;;;;;;25.98;19.70;;;6.30;99.90;;;;;;5131647;27;20297;-64
2021/12/12 12:10:05;;;;;;;27.65;20.90;;;6.40;99.90;;;;;;5134744;27;20305;-63
2021/12/12 12:13:02;;;;;;;28.23;22.08;;;6.40;99.90;;;;;;5124323;27;20214;-63
2021/12/12 12:15:39;;;;;;;28.85;21.08;;;6.40;99.90;;;;;;5121984;27;20218;-64
2021/12/12 12:18:20;;;;;;;27.77;20.40;;;6.30;99.90;;;;;;5134904;27;20221;-64
2021/12/12 12:20:55;;;;;;;27.33;20.02;;;6.40;99.90;;;;;;5135210;27;20222;-64
2021/12/12 12:23:41;;;;;;;24.10;18.88;;;6.40;99.90;;;;;;5134545;27;21480;-64
2021/12/12 12:29:05;;;;;;;26.77;18.45;;;6.40;99.90;;;;;;5134528;27;20314;-64
2021/12/12 12:32:09;;;;;;;23.08;18.35;;;6.40;99.90;;;;;;5133727;27;20687;-63
2021/12/12 12:35:36;;;;;;;28.65;18.40;;;6.50;99.90;;;;;;5134650;27;20218;-63
2021/12/12 12:39:09;;;;;;;25.85;20.83;;;6.60;99.90;;;;;;5131171;27;20839;-63
2021/12/12 12:42:27;;;;;;;26.00;19.23;;;6.60;99.90;;;;;;5123479;27;20221;-63
2021/12/12 12:49:05;;;;;;;32.13;25.50;;;6.70;99.90;;;;;;5091321;27;20565;-64
2021/12/12 12:51:50;;;;;;;41.42;36.92;;;6.70;99.90;;;;;;5036982;28;20304;-63
2021/12/12 12:54:27;;;;;;;35.65;27.65;;;6.80;99.90;;;;;;5049659;28;20303;-63
2021/12/12 12:57:17;;;;;;;27.40;23.35;;;6.80;99.90;;;;;;5029509;28;20221;-64
2021/12/12 13:00:06;;;;;;;25.17;21.13;;;6.80;99.90;;;;;;5035878;28;20239;-62
2021/12/12 13:02:52;;;;;;;25.55;19.40;;;6.90;99.90;;;;;;5044949;28;20225;-63
2021/12/12 13:05:49;;;;;;;23.70;17.85;;;6.80;99.90;;;;;;5018611;28;20229;-63
2021/12/12 13:09:07;;;;;;;22.92;16.75;;;6.80;99.90;;;;;;5029759;28;20553;-64
2021/12/12 13:11:49;;;;;;;19.02;14.95;;;6.80;99.90;;;;;;4979880;28;20345;-64
2021/12/12 13:14:30;;;;;;;20.45;16.45;;;6.80;99.90;;;;;;4987222;28;20226;-64
2021/12/12 13:17:11;;;;;;;20.33;15.60;;;6.70;99.90;;;;;;5034958;28;20228;-64
2021/12/12 13:19:49;;;;;;;19.65;14.60;;;6.70;99.90;;;;;;5029169;28;20225;-63
2021/12/12 13:22:24;;;;;;;20.15;14.32;;;6.70;99.90;;;;;;5029038;28;20552;-63
2021/12/12 13:25:04;;;;;;;21.48;15.23;;;6.60;99.90;;;;;;5042140;28;20228;-63